createdAt,value
2019-03-13T00:03:33.676Z,91.30
2019-03-13T00:06:07.048Z,93.40
2019-03-13T00:08:37.276Z,95.00
2019-03-13T00:11:07.585Z,95.40
2019-03-13T00:13:37.889Z,96.00
2019-03-13T00:16:09.812Z,96.70
2019-03-13T00:18:40.113Z,96.70
2019-03-13T00:21:10.405Z,97.20
2019-03-13T00:23:40.849Z,97.60
2019-03-13T00:26:11.176Z,97.70
2019-03-13T00:28:41.577Z,97.80
2019-03-13T00:31:11.896Z,97.90
2019-03-13T00:33:42.197Z,98.10
2019-03-13T00:36:12.438Z,98.10
2019-03-13T00:38:42.772Z,97.80
2019-03-13T00:41:13.134Z,98.00
2019-03-13T00:43:43.485Z,97.40
2019-03-13T00:46:13.758Z,97.30
2019-03-13T00:48:44.045Z,97.00
2019-03-13T00:51:14.329Z,96.80
2019-03-13T00:53:44.649Z,96.90
2019-03-13T00:56:14.921Z,96.80
2019-03-13T00:58:45.222Z,96.80
2019-03-13T01:01:37.229Z,97.00
2019-03-13T01:04:15.484Z,97.20
2019-03-13T01:06:49.065Z,97.40
2019-03-13T01:09:19.382Z,97.50
2019-03-13T01:11:49.675Z,97.60
2019-03-13T01:14:20.029Z,97.70
2019-03-13T01:16:50.321Z,97.90
2019-03-13T01:19:20.620Z,98.00
2019-03-13T01:21:50.882Z,97.90
2019-03-13T01:24:21.265Z,98.10
2019-03-13T01:26:51.557Z,98.00
2019-03-13T01:29:21.794Z,97.90
2019-03-13T01:32:19.814Z,97.80
2019-03-13T01:34:58.109Z,97.70
2019-03-13T01:37:28.381Z,97.80
2019-03-13T01:39:58.670Z,97.70
2019-03-13T01:42:28.987Z,97.70
2019-03-13T01:44:59.194Z,97.60
2019-03-13T01:47:29.484Z,97.70
2019-03-13T01:49:59.756Z,97.50
2019-03-13T01:52:32.246Z,97.50
2019-03-13T01:55:01.974Z,97.50
2019-03-13T01:57:32.292Z,97.50
2019-03-13T02:00:02.620Z,97.50
2019-03-13T02:02:32.943Z,97.50
2019-03-13T02:05:03.220Z,97.40
2019-03-13T02:07:33.483Z,97.10
2019-03-13T02:10:03.976Z,97.00
2019-03-13T02:12:34.273Z,96.80
2019-03-13T02:15:05.037Z,96.90
2019-03-13T02:17:35.317Z,96.90
2019-03-13T02:20:06.194Z,97.20
2019-03-13T02:22:36.488Z,96.80
2019-03-13T02:25:07.098Z,96.90
2019-03-13T02:27:37.394Z,96.90
2019-03-13T02:30:08.832Z,96.80
2019-03-13T02:32:39.865Z,96.50
2019-03-13T02:35:10.219Z,96.30
2019-03-13T02:37:40.413Z,96.20
2019-03-13T02:40:11.059Z,96.30
2019-03-13T02:42:41.326Z,96.30
2019-03-13T02:45:11.705Z,96.40
2019-03-13T02:47:41.940Z,96.20
2019-03-13T02:50:12.334Z,96.40
2019-03-13T02:52:42.689Z,96.50
2019-03-13T02:55:13.416Z,96.60
2019-03-13T02:57:43.813Z,96.60
2019-03-13T03:00:15.980Z,96.70
2019-03-13T03:02:49.276Z,96.50
2019-03-13T03:05:19.571Z,96.50
2019-03-13T03:07:49.901Z,96.50
2019-03-13T03:10:20.219Z,96.80
2019-03-13T03:12:50.596Z,96.80
2019-03-13T03:15:20.875Z,97.00
2019-03-13T03:17:51.141Z,97.20
2019-03-13T03:20:21.500Z,97.30
2019-03-13T03:22:51.793Z,97.50
2019-03-13T03:25:22.083Z,97.50
2019-03-13T03:27:52.345Z,97.50
2019-03-13T03:30:23.131Z,97.60
2019-03-13T03:32:53.486Z,97.80
2019-03-13T03:35:23.763Z,97.60
2019-03-13T03:37:54.111Z,97.60
2019-03-13T03:40:24.339Z,97.70
2019-03-13T03:42:54.613Z,97.70
2019-03-13T03:45:24.923Z,97.70
2019-03-13T03:47:55.212Z,97.80
2019-03-13T03:50:25.485Z,97.70
2019-03-13T03:52:55.757Z,97.50
2019-03-13T03:55:26.104Z,97.60
2019-03-13T03:57:56.358Z,97.20
2019-03-13T04:00:27.813Z,97.00
2019-03-13T04:02:58.115Z,96.70
2019-03-13T04:05:28.618Z,96.80
2019-03-13T04:07:58.894Z,96.70
2019-03-13T04:10:29.183Z,96.70
2019-03-13T04:12:59.462Z,96.80
2019-03-13T04:15:30.634Z,96.90
2019-03-13T04:18:00.964Z,96.70
2019-03-13T04:20:31.293Z,97.00
2019-03-13T04:23:01.602Z,97.10
2019-03-13T04:25:35.798Z,97.20
2019-03-13T04:28:06.744Z,97.20
2019-03-13T04:30:37.121Z,97.00
2019-03-13T04:33:07.388Z,96.90
2019-03-13T04:35:37.661Z,96.70
2019-03-13T04:38:07.967Z,96.70
2019-03-13T04:40:38.293Z,96.70
2019-03-13T04:43:08.593Z,96.70
2019-03-13T04:45:38.821Z,96.80
2019-03-13T04:48:09.129Z,97.00
2019-03-13T04:50:39.372Z,97.20
2019-03-13T04:53:09.596Z,97.30
2019-03-13T04:55:39.934Z,97.50
2019-03-13T04:58:10.226Z,97.40
2019-03-13T05:00:40.597Z,97.70
2019-03-13T05:03:10.888Z,97.50
2019-03-13T05:05:45.465Z,97.40
2019-03-13T05:08:45.314Z,97.30
2019-03-13T05:11:14.093Z,97.60
2019-03-13T05:13:44.335Z,97.70
2019-03-13T05:16:14.551Z,97.80
2019-03-13T05:18:44.802Z,97.60
2019-03-13T05:21:15.074Z,98.20
2019-03-13T05:23:45.360Z,98.00
2019-03-13T05:26:15.690Z,98.10
2019-03-13T05:28:45.991Z,98.10
2019-03-13T05:31:16.301Z,98.00
2019-03-13T05:33:46.565Z,97.50
2019-03-13T05:36:17.248Z,97.40
2019-03-13T05:38:47.572Z,97.10
2019-03-13T05:41:17.905Z,96.80
2019-03-13T05:43:48.136Z,96.80
2019-03-13T05:46:18.384Z,96.90
2019-03-13T05:48:48.763Z,96.70
2019-03-13T05:51:19.129Z,96.80
2019-03-13T05:53:49.343Z,96.80
2019-03-13T05:56:19.593Z,97.00
2019-03-13T05:58:49.804Z,97.10
2019-03-13T06:01:20.115Z,97.10
2019-03-13T06:03:50.354Z,97.30
2019-03-13T06:06:20.618Z,97.40
2019-03-13T06:08:50.802Z,97.50
2019-03-13T06:11:21.093Z,97.50
2019-03-13T06:13:51.365Z,97.70
2019-03-13T06:16:21.709Z,97.90
2019-03-13T06:18:53.097Z,97.90
2019-03-13T06:21:23.515Z,97.80
2019-03-13T06:23:53.718Z,98.00
2019-03-13T06:26:23.937Z,98.00
2019-03-13T06:28:54.236Z,98.00
2019-03-13T06:31:24.577Z,98.10
2019-03-13T06:33:54.881Z,98.20
2019-03-13T06:36:25.182Z,98.10
2019-03-13T06:38:55.460Z,97.70
2019-03-13T06:41:25.805Z,97.60
2019-03-13T06:43:56.005Z,97.40
2019-03-13T06:46:26.260Z,97.60
2019-03-13T06:48:56.469Z,98.00
2019-03-13T06:51:26.821Z,98.40
2019-03-13T06:53:57.113Z,98.60
2019-03-13T06:56:27.393Z,98.60
2019-03-13T06:59:03.200Z,99.10
2019-03-13T07:01:55.233Z,99.90
2019-03-13T07:04:43.137Z,99.90
2019-03-13T07:07:38.269Z,99.90
2019-03-13T07:10:26.982Z,99.90
2019-03-13T07:13:31.162Z,99.90
2019-03-13T07:16:26.306Z,99.60
2019-03-13T07:19:15.521Z,98.80
2019-03-13T07:22:10.648Z,98.50
2019-03-13T07:24:47.005Z,98.00
2019-03-13T07:27:23.213Z,97.50
2019-03-13T07:30:21.281Z,97.30
2019-03-13T07:33:03.699Z,97.10
2019-03-13T07:35:51.738Z,95.80
2019-03-13T07:38:40.550Z,95.40
2019-03-13T07:41:29.847Z,94.60
2019-03-13T07:44:25.089Z,94.40
2019-03-13T07:47:02.207Z,94.60
2019-03-13T07:49:44.786Z,94.00
2019-03-13T07:52:48.937Z,94.20
2019-03-13T07:55:50.447Z,94.40
2019-03-13T07:58:25.198Z,94.50
2019-03-13T08:01:33.495Z,94.40
2019-03-13T08:04:13.703Z,94.20
2019-03-13T08:06:51.943Z,94.40
2019-03-13T08:09:39.563Z,94.40
2019-03-13T08:12:28.802Z,94.50
2019-03-13T08:15:11.566Z,94.40
2019-03-13T08:17:57.590Z,94.70
2019-03-13T08:20:37.280Z,95.30
2019-03-13T08:23:19.870Z,93.70
2019-03-13T08:26:07.933Z,93.40
2019-03-13T08:29:00.005Z,94.80
2019-03-13T08:31:42.124Z,93.30
2019-03-13T08:34:37.182Z,92.70
2019-03-13T08:37:21.710Z,92.40
2019-03-13T08:40:07.192Z,92.80
2019-03-13T08:42:59.486Z,91.80
2019-03-13T08:46:00.989Z,91.70
2019-03-13T08:48:53.149Z,91.80
2019-03-13T08:51:48.463Z,91.90
2019-03-13T08:54:33.686Z,91.80
2019-03-13T08:57:22.954Z,91.90
2019-03-13T09:00:19.236Z,91.80
2019-03-13T09:03:05.755Z,92.60
2019-03-13T09:05:46.625Z,92.60
2019-03-13T09:08:34.258Z,92.50
2019-03-13T09:11:25.694Z,92.60
2019-03-13T09:14:21.111Z,91.80
2019-03-13T09:17:01.967Z,91.40
2019-03-13T09:19:38.936Z,91.00
2019-03-13T09:22:16.121Z,91.10
2019-03-13T09:25:11.799Z,91.00
2019-03-13T09:27:54.952Z,90.60
2019-03-13T09:30:47.029Z,90.20
2019-03-13T09:33:22.348Z,90.30
2019-03-13T09:36:18.948Z,88.80
2019-03-13T09:39:08.249Z,88.30
2019-03-13T09:41:45.229Z,87.50
2019-03-13T09:44:40.290Z,87.50
2019-03-13T09:47:38.328Z,87.90
2019-03-13T09:50:24.372Z,87.20
2019-03-13T09:53:22.429Z,87.60
2019-03-13T09:56:14.683Z,87.20
2019-03-13T09:59:24.050Z,85.00
2019-03-13T10:02:22.478Z,85.90
2019-03-13T10:05:10.373Z,85.70
2019-03-13T10:07:54.605Z,86.20
2019-03-13T10:10:46.825Z,87.40
2019-03-13T10:13:28.551Z,87.60
2019-03-13T10:16:06.246Z,88.20
2019-03-13T10:18:43.621Z,87.30
2019-03-13T10:21:31.456Z,87.70
2019-03-13T10:24:21.905Z,87.70
2019-03-13T10:26:59.968Z,86.70
2019-03-13T10:29:52.153Z,85.60
2019-03-13T10:32:50.257Z,84.00
2019-03-13T10:35:30.497Z,84.20
2019-03-13T10:38:28.934Z,82.60
2019-03-13T10:41:18.180Z,83.90
2019-03-13T10:43:54.871Z,85.80
2019-03-13T10:46:42.877Z,84.80
2019-03-13T10:49:38.361Z,84.90
2019-03-13T10:52:30.808Z,85.90
2019-03-13T10:55:20.040Z,86.30
2019-03-13T10:58:12.311Z,86.60
2019-03-13T11:01:10.788Z,87.40
2019-03-13T11:04:03.085Z,86.60
2019-03-13T11:06:58.125Z,84.20
2019-03-13T11:10:05.321Z,82.80
2019-03-13T11:13:06.666Z,81.50
2019-03-13T11:16:01.846Z,80.00
2019-03-13T11:18:49.592Z,80.00
2019-03-13T11:21:42.011Z,79.40
2019-03-13T11:24:26.735Z,81.00
2019-03-13T11:27:12.396Z,80.60
2019-03-13T11:30:00.610Z,80.70
2019-03-13T11:32:48.457Z,81.00
2019-03-13T11:35:34.196Z,81.80
2019-03-13T11:38:26.503Z,83.60
2019-03-13T11:41:02.385Z,83.60
2019-03-13T11:43:47.552Z,81.90
2019-03-13T11:46:27.115Z,83.90
2019-03-13T11:49:23.503Z,82.50
2019-03-13T11:52:03.781Z,83.00
2019-03-13T11:54:50.635Z,81.60
2019-03-13T11:57:42.933Z,83.00
2019-03-13T12:00:45.597Z,82.00
2019-03-13T12:03:24.659Z,80.80
2019-03-13T12:06:16.932Z,81.10
2019-03-13T12:08:54.391Z,81.50
2019-03-13T12:11:58.876Z,81.00
2019-03-13T12:14:51.218Z,81.40
2019-03-13T12:17:38.897Z,81.50
2019-03-13T12:20:16.375Z,81.20
2019-03-13T12:22:56.932Z,80.90
2019-03-13T12:25:34.040Z,81.20
2019-03-13T12:28:26.395Z,80.70
2019-03-13T12:31:21.998Z,79.40
2019-03-13T12:34:03.481Z,78.60
2019-03-13T12:36:52.365Z,79.00
2019-03-13T12:39:38.654Z,79.40
2019-03-13T12:42:26.543Z,79.00
2019-03-13T12:45:21.862Z,79.80
2019-03-13T12:48:17.047Z,79.60
2019-03-13T12:50:55.120Z,80.50
2019-03-13T12:53:48.934Z,80.60
2019-03-13T12:56:38.182Z,79.60
2019-03-13T12:59:22.141Z,79.20
2019-03-13T13:02:06.341Z,79.00
2019-03-13T13:04:58.355Z,78.60
2019-03-13T13:07:49.158Z,79.00
2019-03-13T13:10:38.436Z,80.00
2019-03-13T13:13:34.432Z,82.40
2019-03-13T13:16:31.309Z,86.50
2019-03-13T13:19:01.576Z,92.60
2019-03-13T13:21:31.944Z,95.30
2019-03-13T13:24:02.190Z,97.10
2019-03-13T13:26:32.528Z,97.60
2019-03-13T13:29:02.831Z,99.40
2019-03-13T13:31:33.187Z,99.90
2019-03-13T13:34:03.424Z,99.90
2019-03-13T13:36:33.752Z,99.90
2019-03-13T13:39:06.283Z,99.90
2019-03-13T13:41:36.642Z,99.90
2019-03-13T13:44:06.915Z,99.90
2019-03-13T13:46:44.206Z,99.40
2019-03-13T13:49:13.225Z,99.40
2019-03-13T13:51:43.452Z,98.30
2019-03-13T13:54:13.739Z,98.00
2019-03-13T13:56:44.069Z,97.20
2019-03-13T13:59:14.445Z,97.10
2019-03-13T14:01:44.802Z,96.90
2019-03-13T14:04:15.149Z,96.00
2019-03-13T14:06:45.375Z,95.90
2019-03-13T14:09:15.685Z,95.70
2019-03-13T14:11:45.983Z,95.20
2019-03-13T14:14:16.240Z,95.80
2019-03-13T14:16:46.482Z,95.90
2019-03-13T14:19:16.765Z,95.90
2019-03-13T14:21:47.081Z,96.60
2019-03-13T14:24:17.624Z,96.90
2019-03-13T14:26:47.977Z,94.40
2019-03-13T14:29:18.293Z,94.00
2019-03-13T14:31:48.680Z,93.80
2019-03-13T14:34:19.070Z,93.60
2019-03-13T14:36:49.352Z,93.50
2019-03-13T14:39:19.708Z,92.50
2019-03-13T14:41:50.003Z,92.20
2019-03-13T14:44:20.349Z,92.20
2019-03-13T14:46:50.694Z,90.50
2019-03-13T14:49:21.019Z,88.80
2019-03-13T14:51:51.253Z,87.60
2019-03-13T14:54:21.603Z,86.10
2019-03-13T14:56:51.850Z,86.40
2019-03-13T14:59:22.126Z,85.70
2019-03-13T15:01:52.432Z,86.30
2019-03-13T15:04:22.764Z,85.90
2019-03-13T15:06:53.104Z,85.50
2019-03-13T15:09:23.488Z,86.20
2019-03-13T15:11:53.798Z,86.10
2019-03-13T15:14:24.120Z,85.20
2019-03-13T15:16:54.425Z,85.90
2019-03-13T15:19:24.911Z,87.80
2019-03-13T15:21:55.220Z,90.20
2019-03-13T15:24:25.560Z,90.10
2019-03-13T15:26:55.854Z,90.00
2019-03-13T15:29:26.177Z,89.70
2019-03-13T15:31:56.546Z,89.50
2019-03-13T15:34:26.781Z,88.60
2019-03-13T15:36:57.096Z,88.80
2019-03-13T15:39:27.461Z,88.80
2019-03-13T15:41:57.834Z,88.90
2019-03-13T15:44:28.120Z,88.60
2019-03-13T15:46:58.463Z,88.80
2019-03-13T15:49:31.776Z,89.30
2019-03-13T15:52:03.748Z,89.80
2019-03-13T15:54:34.139Z,89.60
2019-03-13T15:57:04.461Z,90.00
2019-03-13T15:59:34.773Z,90.30
2019-03-13T16:02:05.099Z,90.40
2019-03-13T16:04:35.445Z,90.60
2019-03-13T16:07:05.710Z,90.60
2019-03-13T16:09:39.021Z,90.70
2019-03-13T16:12:11.062Z,90.70
2019-03-13T16:14:41.408Z,90.90
2019-03-13T16:17:19.929Z,91.30
2019-03-13T16:19:50.420Z,91.40
2019-03-13T16:22:22.084Z,91.80
2019-03-13T16:24:58.186Z,91.90
2019-03-13T16:27:28.625Z,92.10
2019-03-13T16:29:58.987Z,92.30
2019-03-13T16:32:29.285Z,92.40
2019-03-13T16:34:59.938Z,92.30
2019-03-13T16:37:30.288Z,92.30
2019-03-13T16:40:01.067Z,92.40
2019-03-13T16:42:31.433Z,92.20
2019-03-13T16:45:01.815Z,92.20
2019-03-13T16:47:32.144Z,92.10
2019-03-13T16:50:02.545Z,92.20
2019-03-13T16:52:32.901Z,92.20
2019-03-13T16:55:03.216Z,92.00
2019-03-13T16:57:33.578Z,92.50
2019-03-13T17:00:04.536Z,92.40
2019-03-13T17:02:35.044Z,92.80
2019-03-13T17:05:05.849Z,93.20
2019-03-13T17:07:36.230Z,92.90
2019-03-13T17:10:07.035Z,93.10
2019-03-13T17:12:37.581Z,93.20
2019-03-13T17:15:11.056Z,93.20
2019-03-13T17:17:41.493Z,93.20
2019-03-13T17:20:14.711Z,93.60
2019-03-13T17:22:47.231Z,93.80
2019-03-13T17:25:23.613Z,93.90
2019-03-13T17:27:54.200Z,94.10
2019-03-13T17:30:27.370Z,94.40
2019-03-13T17:32:57.901Z,94.70
2019-03-13T17:35:29.202Z,94.90
2019-03-13T17:37:59.413Z,94.90
2019-03-13T17:40:29.707Z,95.00
2019-03-13T17:43:00.065Z,95.20
2019-03-13T17:45:30.407Z,95.30
2019-03-13T17:48:00.724Z,95.30
2019-03-13T17:50:31.010Z,95.20
2019-03-13T17:53:01.318Z,95.20
2019-03-13T17:55:31.695Z,95.10
2019-03-13T17:58:02.117Z,95.20
2019-03-13T18:00:38.300Z,95.20
2019-03-13T18:03:08.630Z,95.10
2019-03-13T18:05:39.952Z,95.00
2019-03-13T18:08:10.260Z,95.20
2019-03-13T18:10:40.601Z,95.90
2019-03-13T18:13:10.945Z,96.60
2019-03-13T18:15:41.283Z,97.10
2019-03-13T18:18:11.802Z,97.20
2019-03-13T18:20:42.176Z,97.30
2019-03-13T18:23:12.450Z,97.40
2019-03-13T18:25:42.818Z,97.70
2019-03-13T18:28:13.108Z,98.00
2019-03-13T18:30:43.448Z,98.10
2019-03-13T18:33:13.721Z,98.00
2019-03-13T18:35:44.044Z,98.10
2019-03-13T18:38:14.341Z,98.20
2019-03-13T18:40:44.633Z,97.90
2019-03-13T18:43:14.937Z,97.90
2019-03-13T18:45:45.276Z,98.30
2019-03-13T18:48:15.657Z,98.50
2019-03-13T18:50:46.035Z,99.30
2019-03-13T18:53:16.335Z,99.40
2019-03-13T18:55:46.692Z,99.90
2019-03-13T18:58:17.010Z,99.90
2019-03-13T19:00:47.345Z,99.90
2019-03-13T19:03:17.997Z,99.90
2019-03-13T19:05:48.329Z,99.90
2019-03-13T19:08:18.689Z,99.90
2019-03-13T19:10:49.057Z,99.90
2019-03-13T19:13:19.370Z,99.90
2019-03-13T19:15:49.720Z,99.90
2019-03-13T19:18:20.097Z,99.90
2019-03-13T19:20:50.356Z,99.90
2019-03-13T19:23:20.746Z,99.90
2019-03-13T19:25:51.162Z,99.90
2019-03-13T19:28:21.418Z,99.90
2019-03-13T19:30:51.796Z,99.90
2019-03-13T19:33:22.119Z,99.90
2019-03-13T19:35:52.462Z,99.90
2019-03-13T19:38:22.808Z,99.90
2019-03-13T19:40:53.383Z,99.90
2019-03-13T19:43:23.669Z,99.90
2019-03-13T19:45:54.083Z,99.90
2019-03-13T19:48:24.370Z,99.90
2019-03-13T19:50:56.593Z,99.90
2019-03-13T19:53:26.691Z,99.90
2019-03-13T19:55:57.113Z,99.90
2019-03-13T19:58:27.560Z,99.90
2019-03-13T20:00:57.908Z,99.90
2019-03-13T20:03:28.288Z,99.90
2019-03-13T20:05:58.591Z,99.90
2019-03-13T20:08:28.920Z,99.90
2019-03-13T20:10:59.297Z,99.90
2019-03-13T20:13:29.606Z,99.90
2019-03-13T20:15:59.974Z,99.90
2019-03-13T20:18:30.233Z,99.90
2019-03-13T20:21:00.496Z,99.90
2019-03-13T20:23:30.820Z,99.90
2019-03-13T20:26:01.160Z,99.90
2019-03-13T20:28:31.455Z,99.90
2019-03-13T20:31:01.762Z,99.90
2019-03-13T20:33:32.098Z,99.90
2019-03-13T20:36:02.421Z,99.90
2019-03-13T20:38:32.701Z,99.90
2019-03-13T20:41:03.053Z,99.90
2019-03-13T20:43:33.350Z,99.90
2019-03-13T20:46:03.600Z,99.90
2019-03-13T20:48:33.924Z,99.90
2019-03-13T20:51:04.310Z,99.90
2019-03-13T20:53:34.637Z,99.90
2019-03-13T20:56:05.040Z,99.90
2019-03-13T20:58:35.373Z,99.90
2019-03-13T21:01:05.879Z,99.90
2019-03-13T21:03:36.250Z,99.90
2019-03-13T21:06:06.591Z,99.90
2019-03-13T21:08:36.830Z,99.90
2019-03-13T21:11:07.178Z,99.90
2019-03-13T21:13:37.517Z,99.90
2019-03-13T21:16:07.956Z,99.90
2019-03-13T21:18:38.310Z,99.90
2019-03-13T21:21:08.791Z,99.90
2019-03-13T21:23:39.136Z,99.90
2019-03-13T21:26:09.476Z,99.90
2019-03-13T21:28:39.809Z,99.90
2019-03-13T21:31:10.161Z,99.90
2019-03-13T21:33:40.648Z,99.90
2019-03-13T21:36:11.033Z,99.90
2019-03-13T21:38:41.395Z,99.90
2019-03-13T21:41:11.653Z,99.90
2019-03-13T21:43:41.953Z,99.90
2019-03-13T21:46:12.332Z,99.90
2019-03-13T21:48:42.705Z,99.90
2019-03-13T21:51:13.085Z,99.90
2019-03-13T21:53:43.369Z,99.90
2019-03-13T21:56:13.678Z,99.90
2019-03-13T21:58:43.974Z,99.90
2019-03-13T22:01:19.870Z,99.90
2019-03-13T22:03:46.340Z,99.90
2019-03-13T22:06:28.482Z,99.90
2019-03-13T22:08:51.673Z,99.90
2019-03-13T22:11:23.650Z,99.90
2019-03-13T22:13:54.060Z,99.90
2019-03-13T22:16:24.286Z,99.90
2019-03-13T22:18:54.676Z,99.90
2019-03-13T22:21:24.976Z,99.90
2019-03-13T22:23:55.538Z,99.90
2019-03-13T22:26:25.953Z,99.90
2019-03-13T22:28:56.185Z,99.90
2019-03-13T22:31:26.479Z,99.90
2019-03-13T22:33:56.758Z,99.90
2019-03-13T22:36:27.080Z,99.90
2019-03-13T22:38:57.327Z,99.90
2019-03-13T22:41:27.634Z,99.90
2019-03-13T22:43:57.978Z,99.90
2019-03-13T22:46:28.372Z,99.90
2019-03-13T22:48:58.792Z,99.90
2019-03-13T22:51:31.405Z,99.90
2019-03-13T22:54:01.772Z,99.90
2019-03-13T22:56:32.094Z,99.90
2019-03-13T22:59:02.382Z,99.90
2019-03-13T23:01:32.901Z,99.90
2019-03-13T23:04:03.228Z,99.90
2019-03-13T23:06:33.484Z,99.90
2019-03-13T23:09:04.759Z,99.90
2019-03-13T23:11:35.029Z,99.90
2019-03-13T23:14:05.348Z,99.90
2019-03-13T23:16:35.675Z,99.90
2019-03-13T23:19:05.964Z,99.90
2019-03-13T23:21:36.194Z,99.90
2019-03-13T23:24:06.469Z,99.90
2019-03-13T23:26:36.682Z,99.90
2019-03-13T23:29:07.011Z,99.90
2019-03-13T23:31:37.220Z,99.90
2019-03-13T23:34:07.772Z,99.90
2019-03-13T23:36:38.093Z,99.90
2019-03-13T23:39:08.612Z,99.90
2019-03-13T23:41:38.943Z,99.90
2019-03-13T23:44:09.216Z,99.90
2019-03-13T23:46:39.472Z,99.90
2019-03-13T23:49:09.694Z,99.90
2019-03-13T23:51:39.991Z,99.90
2019-03-13T23:54:10.584Z,99.90
2019-03-13T23:56:40.850Z,99.90
2019-03-13T23:59:14.152Z,99.90
